createdAt,value
2023-01-03T00:00:55.788Z,4.82
2023-01-03T00:03:22.303Z,4.47
2023-01-03T00:05:49.403Z,4.40
2023-01-03T00:08:15.827Z,4.13
2023-01-03T00:10:43.093Z,3.70
2023-01-03T00:13:09.916Z,3.70
2023-01-03T00:15:38.373Z,4.00
2023-01-03T00:18:05.675Z,3.83
2023-01-03T00:20:34.526Z,3.67
2023-01-03T00:23:02.181Z,4.28
2023-01-03T00:25:29.909Z,3.30
2023-01-03T00:27:56.595Z,3.58
2023-01-03T00:30:23.723Z,3.78
2023-01-03T00:32:50.233Z,3.45
2023-01-03T00:35:16.808Z,3.95
2023-01-03T00:37:43.442Z,3.92
2023-01-03T00:40:10.745Z,3.92
2023-01-03T00:42:57.363Z,4.00
2023-01-03T00:45:25.755Z,3.90
2023-01-03T00:47:52.876Z,3.83
2023-01-03T00:50:19.292Z,4.18
2023-01-03T00:52:45.983Z,3.95
2023-01-03T00:55:12.387Z,3.75
2023-01-03T00:57:39.389Z,4.30
2023-01-03T01:00:07.112Z,3.90
2023-01-03T01:02:33.763Z,4.07
2023-01-03T01:05:00.386Z,3.90
2023-01-03T01:07:27.855Z,3.92
2023-01-03T01:09:54.302Z,4.18
2023-01-03T01:12:20.840Z,4.63
2023-01-03T01:14:47.365Z,4.00
2023-01-03T01:17:16.648Z,4.25
2023-01-03T01:19:47.185Z,4.32
2023-01-03T01:22:13.622Z,4.60
2023-01-03T01:24:40.357Z,4.35
2023-01-03T01:27:07.395Z,4.32
2023-01-03T01:29:34.134Z,5.00
2023-01-03T01:32:01.810Z,4.15
2023-01-03T01:34:28.973Z,4.30
2023-01-03T01:36:55.707Z,4.65
2023-01-03T01:39:25.075Z,4.57
2023-01-03T01:42:19.333Z,4.30
2023-01-03T01:44:57.997Z,4.75
2023-01-03T01:47:30.719Z,4.43
2023-01-03T01:50:05.462Z,4.38
2023-01-03T01:52:36.450Z,3.83
2023-01-03T01:55:06.706Z,4.00
2023-01-03T01:57:38.043Z,4.10
2023-01-03T02:00:07.231Z,4.43
2023-01-03T02:02:43.225Z,4.07
2023-01-03T02:05:10.387Z,4.75
2023-01-03T02:07:38.202Z,4.65
2023-01-03T02:10:05.658Z,4.40
2023-01-03T02:13:05.619Z,4.22
2023-01-03T02:15:48.973Z,4.22
2023-01-03T02:18:48.087Z,3.90
2023-01-03T02:21:53.468Z,4.03
2023-01-03T02:24:54.527Z,3.67
2023-01-03T02:27:21.443Z,3.50
2023-01-03T02:30:09.595Z,4.18
2023-01-03T02:32:50.931Z,3.65
2023-01-03T02:35:36.259Z,3.50
2023-01-03T02:38:21.420Z,3.42
2023-01-03T02:40:59.807Z,2.97
2023-01-03T02:43:49.728Z,3.05
2023-01-03T02:46:26.318Z,3.00
2023-01-03T02:49:10.160Z,2.95
2023-01-03T02:51:46.384Z,3.42
2023-01-03T02:54:22.049Z,3.03
2023-01-03T02:57:02.833Z,2.85
2023-01-03T02:59:37.048Z,2.83
2023-01-03T03:02:05.925Z,3.17
2023-01-03T03:04:35.632Z,3.00
2023-01-03T03:07:22.338Z,2.80
2023-01-03T03:10:08.361Z,3.00
2023-01-03T03:13:14.540Z,2.83
2023-01-03T03:15:49.264Z,3.05
2023-01-03T03:18:29.963Z,2.80
2023-01-03T03:21:18.585Z,3.15
2023-01-03T03:24:07.157Z,3.33
2023-01-03T03:26:39.879Z,3.05
2023-01-03T03:29:17.150Z,3.00
2023-01-03T03:31:47.898Z,3.38
2023-01-03T03:34:32.628Z,3.40
2023-01-03T03:37:21.873Z,3.28
2023-01-03T03:40:07.127Z,3.00
2023-01-03T03:42:54.819Z,3.00
2023-01-03T03:45:43.144Z,3.10
2023-01-03T03:48:52.782Z,3.50
2023-01-03T03:51:22.115Z,3.15
2023-01-03T03:53:51.057Z,3.42
2023-01-03T03:56:22.773Z,3.40
2023-01-03T03:58:54.039Z,3.50
2023-01-03T04:01:22.503Z,3.15
2023-01-03T04:03:51.409Z,3.55
2023-01-03T04:06:25.768Z,3.13
2023-01-03T04:08:52.570Z,3.67
2023-01-03T04:11:18.970Z,3.80
2023-01-03T04:13:45.397Z,3.65
2023-01-03T04:16:11.907Z,3.65
2023-01-03T04:18:38.387Z,4.28
2023-01-03T04:21:04.915Z,3.63
2023-01-03T04:23:31.646Z,3.38
2023-01-03T04:25:58.107Z,3.53
2023-01-03T04:28:24.559Z,3.50
2023-01-03T04:30:51.062Z,4.13
2023-01-03T04:33:17.544Z,4.10
2023-01-03T04:35:44.123Z,4.00
2023-01-03T04:38:10.587Z,3.40
2023-01-03T04:40:40.872Z,3.72
2023-01-03T04:43:26.315Z,3.78
2023-01-03T04:45:52.878Z,3.65
2023-01-03T04:48:19.363Z,3.80
2023-01-03T04:50:52.564Z,4.32
2023-01-03T04:53:19.531Z,4.27
2023-01-03T04:55:47.849Z,4.25
2023-01-03T04:58:14.682Z,4.05
2023-01-03T05:00:41.278Z,4.20
2023-01-03T05:03:07.754Z,4.60
2023-01-03T05:05:36.508Z,3.90
2023-01-03T05:08:10.648Z,4.63
2023-01-03T05:10:40.720Z,4.60
2023-01-03T05:13:08.295Z,4.82
2023-01-03T05:15:37.970Z,4.38
2023-01-03T05:18:05.397Z,4.30
2023-01-03T05:20:50.555Z,4.85
2023-01-03T05:23:36.418Z,4.78
2023-01-03T05:26:07.466Z,4.60
2023-01-03T05:28:34.322Z,4.90
2023-01-03T05:31:01.188Z,4.90
2023-01-03T05:33:28.224Z,5.07
2023-01-03T05:35:54.609Z,5.03
2023-01-03T05:38:21.251Z,5.93
2023-01-03T05:40:47.744Z,4.97
2023-01-03T05:43:14.199Z,5.00
2023-01-03T05:45:41.145Z,4.95
2023-01-03T05:48:09.430Z,5.57
2023-01-03T05:50:36.047Z,5.80
2023-01-03T05:53:03.854Z,5.72
2023-01-03T05:55:30.356Z,5.20
2023-01-03T05:57:56.912Z,5.40
2023-01-03T06:00:23.348Z,5.75
2023-01-03T06:02:49.839Z,5.90
2023-01-03T06:05:16.313Z,5.63
2023-01-03T06:07:42.740Z,6.35
2023-01-03T06:10:09.652Z,5.57
2023-01-03T06:12:36.109Z,6.45
2023-01-03T06:15:02.585Z,6.95
2023-01-03T06:17:47.530Z,5.88
2023-01-03T06:20:13.960Z,6.30
2023-01-03T06:22:40.413Z,6.30
2023-01-03T06:25:07.090Z,6.32
2023-01-03T06:27:33.583Z,6.30
2023-01-03T06:30:00.033Z,5.80
2023-01-03T06:32:26.627Z,6.03
2023-01-03T06:34:53.144Z,5.53
2023-01-03T06:37:19.629Z,6.28
2023-01-03T06:39:46.140Z,6.47
2023-01-03T06:42:47.676Z,6.00
2023-01-03T06:45:33.401Z,5.47
2023-01-03T06:48:24.832Z,5.53
2023-01-03T06:51:10.130Z,5.55
2023-01-03T06:53:40.076Z,5.93
2023-01-03T06:56:07.347Z,5.30
2023-01-03T06:58:33.857Z,5.30
2023-01-03T07:01:03.484Z,5.38
2023-01-03T07:03:33.273Z,5.43
2023-01-03T07:05:59.842Z,5.53
2023-01-03T07:08:26.338Z,5.53
2023-01-03T07:10:52.729Z,5.40
2023-01-03T07:13:37.841Z,5.75
2023-01-03T07:16:04.494Z,5.55
2023-01-03T07:18:31.492Z,5.30
2023-01-03T07:20:58.024Z,5.43
2023-01-03T07:23:24.442Z,5.43
2023-01-03T07:25:55.011Z,5.40
2023-01-03T07:28:21.466Z,5.72
2023-01-03T07:30:47.912Z,5.55
2023-01-03T07:33:16.468Z,5.50
2023-01-03T07:35:43.132Z,5.47
2023-01-03T07:38:12.030Z,6.30
2023-01-03T07:40:38.894Z,5.30
2023-01-03T07:43:23.991Z,5.10
2023-01-03T07:45:50.488Z,5.40
2023-01-03T07:48:16.954Z,5.97
2023-01-03T07:50:43.395Z,6.20
2023-01-03T07:53:16.357Z,5.68
2023-01-03T07:55:44.369Z,5.85
2023-01-03T07:58:11.532Z,5.45
2023-01-03T08:00:39.043Z,6.70
2023-01-03T08:03:10.436Z,7.30
2023-01-03T08:05:37.476Z,6.85
2023-01-03T08:08:04.880Z,6.88
2023-01-03T08:10:50.062Z,7.80
2023-01-03T08:13:19.370Z,7.68
2023-01-03T08:15:50.971Z,7.25
2023-01-03T08:18:20.127Z,6.75
2023-01-03T08:20:47.707Z,6.57
2023-01-03T08:23:14.459Z,7.15
2023-01-03T08:25:41.017Z,6.55
2023-01-03T08:28:09.246Z,6.60
2023-01-03T08:30:40.761Z,7.07
2023-01-03T08:33:10.898Z,6.65
2023-01-03T08:35:40.328Z,6.30
2023-01-03T08:38:10.210Z,6.05
2023-01-03T08:40:42.470Z,6.63
2023-01-03T08:43:11.922Z,6.70
2023-01-03T08:45:38.928Z,6.53
2023-01-03T08:48:06.821Z,6.18
2023-01-03T08:50:34.045Z,6.15
2023-01-03T08:53:00.693Z,6.55
2023-01-03T08:55:27.190Z,6.65
2023-01-03T08:57:53.675Z,6.47
2023-01-03T09:00:20.380Z,6.45
2023-01-03T09:02:46.986Z,6.85
2023-01-03T09:05:13.611Z,7.03
2023-01-03T09:07:40.315Z,6.65
2023-01-03T09:10:07.189Z,6.20
2023-01-03T09:12:33.684Z,6.63
2023-01-03T09:15:00.118Z,7.75
2023-01-03T09:17:26.931Z,7.07
2023-01-03T09:19:53.383Z,7.40
2023-01-03T09:22:19.824Z,7.07
2023-01-03T09:24:46.304Z,7.78
2023-01-03T09:27:12.764Z,8.30
2023-01-03T09:29:39.215Z,7.63
2023-01-03T09:32:05.723Z,7.63
2023-01-03T09:34:32.237Z,8.23
2023-01-03T09:36:58.891Z,7.28
2023-01-03T09:39:25.426Z,7.50
2023-01-03T09:42:11.893Z,7.25
2023-01-03T09:44:40.672Z,7.28
2023-01-03T09:47:16.711Z,6.88
2023-01-03T09:50:04.522Z,7.93
2023-01-03T09:52:51.861Z,7.43
2023-01-03T09:55:43.013Z,7.28
2023-01-03T09:58:34.072Z,7.75
2023-01-03T10:01:33.432Z,7.32
2023-01-03T10:04:21.832Z,7.15
2023-01-03T10:06:59.714Z,7.65
2023-01-03T10:09:29.471Z,7.78
2023-01-03T10:12:06.881Z,8.02
2023-01-03T10:15:07.054Z,9.25
2023-01-03T10:17:48.422Z,7.53
2023-01-03T10:20:30.902Z,8.23
2023-01-03T10:23:00.875Z,8.68
2023-01-03T10:25:29.148Z,8.52
2023-01-03T10:28:02.467Z,8.85
2023-01-03T10:31:17.571Z,8.40
2023-01-03T10:33:46.797Z,9.95
2023-01-03T10:36:15.693Z,8.93
2023-01-03T10:38:51.962Z,9.35
2023-01-03T10:41:33.496Z,8.85
2023-01-03T10:44:02.187Z,9.93
2023-01-03T10:46:30.030Z,8.90
2023-01-03T10:49:29.370Z,8.98
2023-01-03T10:52:03.559Z,9.18
2023-01-03T10:54:54.821Z,8.57
2023-01-03T10:57:46.061Z,9.43
2023-01-03T11:00:35.741Z,9.27
2023-01-03T11:03:16.391Z,8.98
2023-01-03T11:05:49.109Z,8.93
2023-01-03T11:08:22.802Z,9.27
2023-01-03T11:10:58.311Z,9.00
2023-01-03T11:13:43.204Z,9.38
2023-01-03T11:16:26.291Z,8.63
2023-01-03T11:19:01.703Z,8.90
2023-01-03T11:21:43.055Z,8.38
2023-01-03T11:24:42.703Z,8.23
2023-01-03T11:27:21.452Z,9.02
2023-01-03T11:30:29.178Z,8.48
2023-01-03T11:33:07.915Z,8.27
2023-01-03T11:35:45.283Z,8.93
2023-01-03T11:38:38.157Z,9.05
2023-01-03T11:41:39.168Z,8.23
2023-01-03T11:44:23.764Z,8.82
2023-01-03T11:47:15.306Z,8.15
2023-01-03T11:49:57.009Z,8.48
2023-01-03T11:52:29.818Z,8.65
2023-01-03T11:55:40.919Z,8.32
2023-01-03T11:58:23.915Z,8.00
2023-01-03T12:01:03.653Z,8.63
2023-01-03T12:03:45.396Z,8.63
2023-01-03T12:06:28.328Z,8.18
2023-01-03T12:09:06.945Z,7.45
2023-01-03T12:11:55.019Z,7.60
2023-01-03T12:14:26.548Z,7.70
2023-01-03T12:17:12.331Z,7.20
2023-01-03T12:19:46.270Z,6.97
2023-01-03T12:22:22.540Z,6.57
2023-01-03T12:25:05.131Z,6.57
2023-01-03T12:27:42.046Z,6.45
2023-01-03T12:30:31.401Z,6.97
2023-01-03T12:33:44.661Z,6.72
2023-01-03T12:36:38.842Z,6.22
2023-01-03T12:39:33.981Z,5.95
2023-01-03T12:42:33.216Z,6.60
2023-01-03T12:45:09.755Z,5.88
2023-01-03T12:47:58.562Z,5.68
2023-01-03T12:50:42.321Z,6.28
2023-01-03T12:53:18.961Z,6.43
2023-01-03T12:56:07.019Z,6.43
2023-01-03T12:59:00.910Z,6.30
2023-01-03T13:01:37.691Z,6.95
2023-01-03T13:04:23.741Z,7.22
2023-01-03T13:07:06.142Z,7.20
2023-01-03T13:09:38.660Z,7.72
2023-01-03T13:12:28.184Z,8.30
2023-01-03T13:14:58.508Z,7.93
2023-01-03T13:17:27.376Z,8.10
2023-01-03T13:19:59.317Z,7.90
2023-01-03T13:22:50.153Z,8.02
2023-01-03T13:25:42.337Z,7.95
2023-01-03T13:28:18.178Z,8.80
2023-01-03T13:30:44.698Z,7.78
2023-01-03T13:33:11.107Z,7.90
2023-01-03T13:35:43.802Z,7.80
2023-01-03T13:38:24.251Z,7.70
2023-01-03T13:43:44.863Z,7.72
2023-01-03T13:46:22.929Z,8.00
2023-01-03T13:48:55.227Z,7.55
2023-01-03T13:51:33.155Z,7.85
2023-01-03T13:54:19.484Z,8.02
2023-01-03T13:56:45.956Z,7.53
2023-01-03T13:59:25.712Z,7.28
2023-01-03T14:02:10.540Z,7.80
2023-01-03T14:05:06.263Z,7.05
2023-01-03T14:07:44.953Z,7.40
2023-01-03T14:10:33.318Z,7.03
2023-01-03T14:13:21.315Z,7.60
2023-01-03T14:15:49.258Z,7.05
2023-01-03T14:18:26.103Z,7.60
2023-01-03T14:20:54.389Z,7.80
2023-01-03T14:23:58.310Z,7.90
2023-01-03T14:26:19.307Z,7.72
2023-01-03T14:28:49.299Z,8.68
2023-01-03T14:31:25.421Z,8.52
2023-01-03T14:33:58.409Z,8.30
2023-01-03T14:36:25.389Z,9.02
2023-01-03T14:38:59.899Z,9.02
2023-01-03T14:41:28.372Z,8.73
2023-01-03T14:44:02.489Z,9.48
2023-01-03T14:49:03.113Z,10.23
2023-01-03T14:51:32.858Z,9.43
2023-01-03T14:54:00.457Z,9.30
2023-01-03T14:56:28.343Z,10.30
2023-01-03T14:58:55.723Z,9.65
2023-01-03T15:01:23.504Z,9.93
2023-01-03T15:03:51.441Z,10.95
2023-01-03T15:06:20.576Z,10.32
2023-01-03T15:08:49.764Z,12.93
2023-01-03T15:11:33.000Z,11.88
2023-01-03T15:14:04.565Z,11.63
2023-01-03T15:16:33.358Z,11.52
2023-01-03T15:19:06.931Z,12.50
2023-01-03T15:21:33.788Z,12.30
2023-01-03T15:24:00.285Z,13.48
2023-01-03T15:26:40.985Z,12.40
2023-01-03T15:29:14.111Z,11.60
2023-01-03T15:32:00.684Z,12.87
2023-01-03T15:34:30.328Z,11.60
2023-01-03T15:37:15.001Z,12.80
2023-01-03T15:39:47.125Z,12.75
2023-01-03T15:42:45.339Z,14.65
2023-01-03T15:45:24.232Z,15.60
2023-01-03T15:47:55.590Z,17.27
2023-01-03T15:50:25.131Z,14.73
2023-01-03T15:52:51.609Z,15.43
2023-01-03T15:55:18.465Z,14.60
2023-01-03T15:57:52.422Z,14.82
2023-01-03T16:00:22.767Z,15.52
2023-01-03T16:02:50.193Z,14.18
2023-01-03T16:05:22.106Z,14.80
2023-01-03T16:07:49.400Z,14.52
2023-01-03T16:10:17.920Z,14.68
2023-01-03T16:12:44.541Z,15.52
2023-01-03T16:15:20.349Z,13.45
2023-01-03T16:17:47.052Z,14.27
2023-01-03T16:20:16.028Z,14.68
2023-01-03T16:22:57.509Z,13.45
2023-01-03T16:25:26.763Z,14.13
2023-01-03T16:27:53.213Z,14.27
2023-01-03T16:30:19.620Z,14.30
2023-01-03T16:32:46.278Z,13.60
2023-01-03T16:35:17.177Z,14.02
2023-01-03T16:37:43.728Z,14.38
2023-01-03T16:40:14.230Z,14.23
2023-01-03T16:42:40.690Z,14.25
2023-01-03T16:45:07.943Z,14.60
2023-01-03T16:47:35.568Z,14.25
2023-01-03T16:50:06.529Z,14.00
2023-01-03T16:52:37.663Z,15.10
2023-01-03T16:55:32.864Z,14.50
2023-01-03T16:57:59.801Z,14.93
2023-01-03T17:00:29.814Z,14.23
2023-01-03T17:02:59.185Z,15.02
2023-01-03T17:05:37.608Z,15.82
2023-01-03T17:08:16.153Z,15.00
2023-01-03T17:10:46.632Z,16.02
2023-01-03T17:13:29.754Z,15.77
2023-01-03T17:15:57.446Z,16.95
2023-01-03T17:18:32.522Z,15.93
2023-01-03T17:21:02.057Z,15.43
2023-01-03T17:23:32.564Z,15.27
2023-01-03T17:25:59.020Z,15.98
2023-01-03T17:28:25.621Z,15.95
2023-01-03T17:30:56.495Z,15.43
2023-01-03T17:33:28.791Z,15.90
2023-01-03T17:36:00.588Z,15.02
2023-01-03T17:38:29.540Z,15.60
2023-01-03T17:40:57.223Z,14.68
2023-01-03T17:43:24.948Z,15.40
2023-01-03T17:46:20.609Z,15.32
2023-01-03T17:49:07.918Z,15.23
2023-01-03T17:51:34.378Z,15.15
2023-01-03T17:54:00.892Z,14.98
2023-01-03T17:56:28.403Z,15.05
2023-01-03T17:58:56.505Z,14.02
2023-01-03T18:01:23.860Z,16.10
2023-01-03T18:03:50.954Z,16.35
2023-01-03T18:06:23.853Z,15.15
2023-01-03T18:08:52.614Z,14.88
2023-01-03T18:11:21.996Z,14.77
2023-01-03T18:13:49.372Z,14.98
2023-01-03T18:16:18.445Z,15.70
2023-01-03T18:18:45.502Z,13.63
2023-01-03T18:21:27.956Z,14.60
2023-01-03T18:24:00.619Z,13.82
2023-01-03T18:26:36.033Z,13.95
2023-01-03T18:29:04.926Z,14.52
2023-01-03T18:31:31.842Z,13.98
2023-01-03T18:33:58.778Z,14.15
2023-01-03T18:36:29.875Z,13.20
2023-01-03T18:39:03.656Z,13.70
2023-01-03T18:41:33.239Z,13.93
2023-01-03T18:44:00.634Z,13.75
2023-01-03T18:46:27.888Z,12.75
2023-01-03T18:48:54.557Z,13.20
2023-01-03T18:51:24.828Z,13.40
2023-01-03T18:53:56.681Z,12.77
2023-01-03T18:56:32.936Z,12.68
2023-01-03T18:59:03.243Z,13.40
2023-01-03T19:01:30.552Z,11.90
2023-01-03T19:03:57.881Z,12.73
2023-01-03T19:06:33.693Z,12.50
2023-01-03T19:09:03.440Z,12.90
2023-01-03T19:11:36.489Z,11.27
2023-01-03T19:14:04.080Z,12.75
2023-01-03T19:16:35.805Z,11.65
2023-01-03T19:19:04.108Z,12.18
2023-01-03T19:21:35.734Z,12.38
2023-01-03T19:24:26.875Z,12.18
2023-01-03T19:27:01.521Z,11.20
2023-01-03T19:29:36.944Z,11.35
2023-01-03T19:32:08.038Z,11.48
2023-01-03T19:34:34.497Z,10.88
2023-01-03T19:37:01.174Z,10.50
2023-01-03T19:39:32.161Z,11.38
2023-01-03T19:42:21.166Z,12.10
2023-01-03T19:44:49.241Z,11.43
2023-01-03T19:47:18.203Z,10.60
2023-01-03T19:49:49.637Z,11.23
2023-01-03T19:52:16.823Z,10.75
2023-01-03T19:54:44.203Z,11.23
2023-01-03T19:57:21.877Z,10.75
2023-01-03T19:59:54.775Z,10.90
2023-01-03T20:02:32.088Z,11.07
2023-01-03T20:04:59.600Z,10.23
2023-01-03T20:07:26.359Z,10.20
2023-01-03T20:09:52.960Z,10.13
2023-01-03T20:12:24.410Z,9.77
2023-01-03T20:14:53.192Z,10.02
2023-01-03T20:17:22.508Z,9.32
2023-01-03T20:19:49.964Z,9.82
2023-01-03T20:22:52.944Z,10.65
2023-01-03T20:25:05.536Z,9.43
2023-01-03T20:27:31.991Z,9.85
2023-01-03T20:29:58.674Z,9.27
2023-01-03T20:32:25.404Z,9.93
2023-01-03T20:34:52.010Z,9.27
2023-01-03T20:37:20.699Z,9.70
2023-01-03T20:39:47.395Z,9.20
2023-01-03T20:42:24.862Z,9.00
2023-01-03T20:44:51.397Z,8.70
2023-01-03T20:47:24.282Z,8.77
2023-01-03T20:49:52.625Z,8.82
2023-01-03T20:52:22.675Z,8.63
2023-01-03T20:54:49.500Z,8.18
2023-01-03T20:57:18.338Z,8.45
2023-01-03T20:59:44.865Z,8.43
2023-01-03T21:02:11.739Z,7.93
2023-01-03T21:04:39.846Z,8.52
2023-01-03T21:07:11.552Z,8.23
2023-01-03T21:09:38.255Z,8.48
2023-01-03T21:12:04.922Z,8.02
2023-01-03T21:14:31.415Z,7.90
2023-01-03T21:16:57.955Z,7.10
2023-01-03T21:19:24.758Z,8.00
2023-01-03T21:21:52.978Z,8.35
2023-01-03T21:24:22.224Z,7.70
2023-01-03T21:26:49.090Z,8.20
2023-01-03T21:29:15.784Z,7.00
2023-01-03T21:31:43.305Z,6.57
2023-01-03T21:34:18.685Z,7.50
2023-01-03T21:36:45.286Z,6.93
2023-01-03T21:39:11.778Z,7.25
2023-01-03T21:41:58.651Z,7.60
2023-01-03T21:44:25.212Z,7.22
2023-01-03T21:46:52.461Z,6.80
2023-01-03T21:49:19.644Z,6.43
2023-01-03T21:51:46.115Z,7.03
2023-01-03T21:54:12.835Z,6.68
2023-01-03T21:56:45.376Z,6.80
2023-01-03T21:59:14.728Z,5.78
2023-01-03T22:02:01.891Z,6.20
2023-01-03T22:04:28.813Z,6.05
2023-01-03T22:07:00.692Z,5.20
2023-01-03T22:09:48.907Z,5.47
2023-01-03T22:12:16.467Z,5.00
2023-01-03T22:14:44.604Z,5.47
2023-01-03T22:17:11.157Z,6.47
2023-01-03T22:19:37.794Z,4.97
2023-01-03T22:22:04.846Z,5.45
2023-01-03T22:24:31.431Z,5.20
2023-01-03T22:26:57.856Z,5.10
2023-01-03T22:29:24.438Z,4.45
2023-01-03T22:31:54.017Z,4.72
2023-01-03T22:34:20.599Z,4.72
2023-01-03T22:36:47.030Z,4.78
2023-01-03T22:39:13.533Z,4.40
2023-01-03T22:41:40.076Z,3.92
2023-01-03T22:44:06.528Z,4.05
2023-01-03T22:46:33.157Z,4.35
2023-01-03T22:48:59.704Z,4.35
2023-01-03T22:51:29.348Z,4.07
2023-01-03T22:53:56.962Z,4.15
2023-01-03T22:56:23.498Z,4.60
2023-01-03T22:58:50.046Z,3.83
2023-01-03T23:01:19.293Z,3.80
2023-01-03T23:03:47.380Z,4.00
2023-01-03T23:06:19.328Z,4.07
2023-01-03T23:08:51.295Z,3.83
2023-01-03T23:11:39.091Z,3.80
2023-01-03T23:14:10.628Z,3.70
2023-01-03T23:16:37.885Z,4.20
2023-01-03T23:19:07.113Z,3.83
2023-01-03T23:21:34.604Z,3.80
2023-01-03T23:24:01.760Z,3.65
2023-01-03T23:26:28.633Z,3.60
2023-01-03T23:28:56.723Z,3.58
2023-01-03T23:31:26.052Z,3.58
2023-01-03T23:33:58.095Z,3.38
2023-01-03T23:36:25.458Z,3.92
2023-01-03T23:38:52.291Z,3.50
2023-01-03T23:41:20.140Z,3.55
2023-01-03T23:43:47.097Z,3.78
2023-01-03T23:46:19.424Z,3.42
2023-01-03T23:48:47.115Z,4.05
2023-01-03T23:51:14.305Z,3.72
2023-01-03T23:53:42.763Z,3.30
2023-01-03T23:56:12.832Z,3.40
2023-01-03T23:58:39.370Z,3.47
